createdAt,value
2017-11-30T00:00:42.416Z,76.60
2017-11-30T00:03:15.993Z,77.20
2017-11-30T00:05:51.695Z,76.90
2017-11-30T00:08:25.338Z,77.00
2017-11-30T00:10:58.317Z,77.70
2017-11-30T00:13:31.773Z,77.70
2017-11-30T00:16:05.174Z,77.70
2017-11-30T00:18:38.282Z,78.00
2017-11-30T00:21:11.277Z,78.00
2017-11-30T00:23:45.738Z,78.20
2017-11-30T00:26:19.954Z,78.50
2017-11-30T00:28:53.074Z,78.40
2017-11-30T00:31:26.914Z,78.60
2017-11-30T00:33:59.975Z,78.70
2017-11-30T00:36:33.734Z,78.90
2017-11-30T00:39:07.773Z,80.00
2017-11-30T00:41:40.895Z,80.00
2017-11-30T00:44:30.934Z,80.40
2017-11-30T00:47:05.613Z,80.50
2017-11-30T00:49:41.655Z,80.60
2017-11-30T00:52:15.155Z,81.00
2017-11-30T00:54:48.037Z,80.80
2017-11-30T00:57:21.453Z,80.90
2017-11-30T00:59:54.994Z,81.30
2017-11-30T01:02:30.494Z,81.10
2017-11-30T01:05:03.975Z,80.80
2017-11-30T01:07:37.737Z,80.90
2017-11-30T01:10:11.636Z,81.00
2017-11-30T01:12:46.473Z,81.70
2017-11-30T01:15:19.414Z,81.70
2017-11-30T01:17:53.357Z,81.80
2017-11-30T01:20:31.653Z,82.00
2017-11-30T01:23:08.373Z,82.20
2017-11-30T01:25:41.855Z,82.60
2017-11-30T01:28:15.417Z,83.00
2017-11-30T01:30:49.317Z,83.10
2017-11-30T01:33:22.776Z,83.50
2017-11-30T01:35:57.137Z,84.00
2017-11-30T01:38:31.856Z,83.90
2017-11-30T01:41:05.940Z,84.20
2017-11-30T01:43:39.036Z,84.10
2017-11-30T01:46:11.914Z,84.10
2017-11-30T01:48:45.635Z,84.00
2017-11-30T01:51:19.438Z,84.10
2017-11-30T01:53:55.317Z,84.70
2017-11-30T01:56:35.097Z,84.30
2017-11-30T01:59:07.921Z,84.30
2017-11-30T02:01:40.885Z,84.40
2017-11-30T02:04:14.459Z,84.50
2017-11-30T02:06:50.515Z,83.80
2017-11-30T02:09:23.717Z,83.30
2017-11-30T02:11:56.998Z,83.00
2017-11-30T02:14:31.136Z,83.30
2017-11-30T02:17:05.056Z,83.10
2017-11-30T02:19:39.375Z,82.60
2017-11-30T02:22:12.274Z,82.60
2017-11-30T02:24:45.957Z,82.80
2017-11-30T02:27:20.398Z,82.70
2017-11-30T02:30:01.244Z,82.80
2017-11-30T02:32:34.259Z,82.80
2017-11-30T02:35:08.279Z,82.70
2017-11-30T02:37:42.634Z,82.10
2017-11-30T02:40:15.633Z,82.10
2017-11-30T02:42:48.856Z,82.00
2017-11-30T02:45:22.198Z,82.00
2017-11-30T02:47:55.516Z,82.00
2017-11-30T02:50:28.954Z,81.70
2017-11-30T02:53:02.037Z,81.40
2017-11-30T02:55:35.493Z,81.70
2017-11-30T02:58:08.997Z,81.60
2017-11-30T03:00:42.573Z,81.70
2017-11-30T03:03:16.035Z,81.90
2017-11-30T03:05:49.874Z,82.00
2017-11-30T03:08:23.476Z,82.00
2017-11-30T03:10:57.314Z,82.10
2017-11-30T03:13:31.813Z,82.20
2017-11-30T03:16:05.613Z,82.60
2017-11-30T03:18:39.484Z,83.00
2017-11-30T03:21:13.618Z,82.70
2017-11-30T03:23:47.074Z,82.70
2017-11-30T03:26:21.014Z,83.10
2017-11-30T03:28:54.298Z,83.00
2017-11-30T03:31:28.295Z,83.60
2017-11-30T03:34:00.597Z,84.00
2017-11-30T03:36:36.116Z,84.10
2017-11-30T03:39:14.818Z,83.90
2017-11-30T03:41:49.294Z,83.50
2017-11-30T03:44:23.314Z,83.50
2017-11-30T03:46:56.596Z,82.70
2017-11-30T03:49:30.417Z,82.50
2017-11-30T03:52:03.753Z,82.70
2017-11-30T03:54:37.558Z,83.30
2017-11-30T03:57:10.515Z,83.50
2017-11-30T04:02:25.714Z,83.80
2017-11-30T04:04:59.396Z,83.60
2017-11-30T04:07:32.914Z,84.20
2017-11-30T04:10:07.237Z,84.40
2017-11-30T04:12:41.036Z,84.20
2017-11-30T04:15:15.453Z,83.60
2017-11-30T04:17:50.037Z,83.30
2017-11-30T04:20:24.154Z,83.20
2017-11-30T04:22:57.094Z,83.20
2017-11-30T04:25:30.454Z,83.00
2017-11-30T04:28:04.035Z,83.10
2017-11-30T04:30:37.898Z,82.90
2017-11-30T04:33:23.253Z,83.20
2017-11-30T04:35:56.461Z,83.20
2017-11-30T04:38:30.716Z,83.60
2017-11-30T04:41:04.137Z,83.80
2017-11-30T04:43:37.415Z,83.90
2017-11-30T04:46:11.277Z,84.20
2017-11-30T04:48:44.955Z,84.20
2017-11-30T04:51:19.837Z,84.20
2017-11-30T04:53:53.354Z,84.20
2017-11-30T04:56:25.977Z,84.00
2017-11-30T04:58:59.756Z,83.60
2017-11-30T05:01:32.975Z,83.60
2017-11-30T05:04:06.785Z,83.20
2017-11-30T05:06:39.800Z,83.20
2017-11-30T05:09:14.295Z,83.10
2017-11-30T05:11:47.733Z,83.10
2017-11-30T05:14:21.058Z,83.20
2017-11-30T05:16:54.195Z,83.20
2017-11-30T05:19:27.994Z,82.70
2017-11-30T05:22:00.117Z,83.10
2017-11-30T05:24:40.258Z,84.20
2017-11-30T05:27:13.636Z,84.20
2017-11-30T05:29:46.996Z,84.20
2017-11-30T05:32:20.156Z,84.10
2017-11-30T05:34:53.955Z,84.50
2017-11-30T05:37:28.695Z,84.60
2017-11-30T05:40:02.295Z,84.80
2017-11-30T05:42:35.913Z,84.70
2017-11-30T05:45:10.798Z,84.40
2017-11-30T05:47:45.998Z,83.90
2017-11-30T05:50:21.154Z,83.60
2017-11-30T05:52:56.194Z,83.00
2017-11-30T05:55:29.877Z,82.90
2017-11-30T05:58:02.973Z,82.60
2017-11-30T06:00:37.395Z,82.60
2017-11-30T06:03:10.556Z,82.90
2017-11-30T06:05:45.657Z,83.00
2017-11-30T06:08:20.975Z,82.80
2017-11-30T06:10:54.872Z,82.10
2017-11-30T06:13:32.175Z,82.30
2017-11-30T06:16:05.585Z,81.80
2017-11-30T06:18:39.476Z,81.40
2017-11-30T06:21:13.535Z,81.40
2017-11-30T06:23:51.375Z,81.90
2017-11-30T06:26:32.058Z,81.90
2017-11-30T06:29:06.060Z,82.10
2017-11-30T06:31:40.220Z,82.10
2017-11-30T06:34:14.433Z,82.00
2017-11-30T06:36:48.339Z,82.10
2017-11-30T06:39:22.256Z,81.90
2017-11-30T06:42:00.032Z,82.10
2017-11-30T06:44:36.034Z,82.00
2017-11-30T06:47:12.314Z,81.90
2017-11-30T06:49:46.157Z,81.50
2017-11-30T06:52:25.294Z,81.10
2017-11-30T06:55:02.401Z,81.20
2017-11-30T06:57:36.555Z,81.20
2017-11-30T07:00:14.775Z,81.20
2017-11-30T07:02:49.495Z,81.00
2017-11-30T07:05:24.417Z,80.80
2017-11-30T07:08:01.138Z,80.80
2017-11-30T07:10:40.275Z,80.90
2017-11-30T07:13:14.157Z,80.90
2017-11-30T07:15:48.478Z,80.20
2017-11-30T07:18:22.559Z,79.70
2017-11-30T07:21:00.236Z,79.50
2017-11-30T07:23:35.674Z,79.50
2017-11-30T07:26:10.556Z,78.60
2017-11-30T07:28:45.855Z,78.60
2017-11-30T07:31:20.314Z,78.60
2017-11-30T07:33:58.533Z,78.60
2017-11-30T07:36:32.414Z,78.30
2017-11-30T07:39:09.357Z,78.00
2017-11-30T07:41:43.096Z,77.00
2017-11-30T07:44:20.776Z,76.90
2017-11-30T07:46:55.536Z,76.30
2017-11-30T07:49:44.376Z,75.50
2017-11-30T07:55:15.314Z,75.40
2017-11-30T07:57:50.495Z,75.50
2017-11-30T08:00:25.394Z,75.40
2017-11-30T08:02:59.395Z,75.20
2017-11-30T08:05:32.997Z,74.80
2017-11-30T08:08:09.573Z,75.00
2017-11-30T08:10:42.991Z,75.10
2017-11-30T08:13:17.312Z,74.20
2017-11-30T08:15:52.919Z,74.20
2017-11-30T08:18:26.659Z,74.00
2017-11-30T08:20:59.859Z,73.80
2017-11-30T08:23:33.574Z,73.50
2017-11-30T08:26:07.281Z,73.40
2017-11-30T08:28:43.822Z,73.20
2017-11-30T08:31:18.435Z,73.50
2017-11-30T08:33:53.555Z,73.30
2017-11-30T08:36:26.776Z,73.00
2017-11-30T08:38:59.817Z,72.60
2017-11-30T08:41:34.514Z,71.80
2017-11-30T08:44:09.120Z,71.10
2017-11-30T08:46:42.939Z,70.90
2017-11-30T08:49:16.414Z,71.10
2017-11-30T08:51:50.881Z,71.10
2017-11-30T08:54:25.436Z,71.20
2017-11-30T08:57:03.536Z,70.10
2017-11-30T08:59:38.360Z,70.10
2017-11-30T09:02:11.762Z,70.20
2017-11-30T09:04:49.476Z,70.30
2017-11-30T09:07:23.756Z,70.30
2017-11-30T09:10:00.718Z,70.50
2017-11-30T09:12:35.016Z,69.90
2017-11-30T09:15:13.196Z,69.10
2017-11-30T09:17:48.676Z,69.50
2017-11-30T09:20:23.013Z,70.00
2017-11-30T09:22:57.757Z,69.20
2017-11-30T09:25:32.397Z,64.80
2017-11-30T09:28:06.298Z,64.80
2017-11-30T09:30:41.638Z,60.40
2017-11-30T09:33:18.254Z,58.80
2017-11-30T09:35:53.396Z,58.80
2017-11-30T09:38:27.317Z,58.50
2017-11-30T09:41:00.175Z,58.70
2017-11-30T09:43:34.440Z,57.20
2017-11-30T09:46:14.192Z,54.20
2017-11-30T09:48:48.015Z,51.90
2017-11-30T09:51:24.180Z,50.10
2017-11-30T09:54:00.960Z,50.30
2017-11-30T09:56:35.219Z,51.00
2017-11-30T09:59:09.596Z,51.10
2017-11-30T10:01:47.576Z,50.70
2017-11-30T10:04:22.576Z,50.70
2017-11-30T10:06:57.016Z,53.00
2017-11-30T10:09:31.417Z,52.90
2017-11-30T10:12:11.538Z,52.90
2017-11-30T10:14:45.602Z,53.20
2017-11-30T10:17:22.399Z,52.80
2017-11-30T10:19:56.276Z,52.40
2017-11-30T10:22:29.997Z,52.40
2017-11-30T10:25:04.176Z,51.50
2017-11-30T10:27:38.998Z,50.80
2017-11-30T10:30:13.858Z,50.20
2017-11-30T10:32:49.175Z,50.10
2017-11-30T10:35:24.135Z,51.40
2017-11-30T10:38:00.066Z,51.50
2017-11-30T10:40:40.516Z,52.10
2017-11-30T10:43:14.360Z,52.30
2017-11-30T10:45:48.748Z,52.50
2017-11-30T10:48:23.954Z,52.40
2017-11-30T10:51:01.076Z,52.60
2017-11-30T10:53:39.657Z,53.20
2017-11-30T10:56:16.436Z,53.30
2017-11-30T10:58:55.456Z,54.80
2017-11-30T11:01:42.217Z,55.20
2017-11-30T11:04:21.624Z,55.80
2017-11-30T11:06:57.216Z,56.00
2017-11-30T11:09:33.484Z,56.20
2017-11-30T11:12:07.695Z,56.90
2017-11-30T11:14:42.435Z,57.30
2017-11-30T11:17:17.134Z,57.50
2017-11-30T11:19:52.819Z,58.40
2017-11-30T11:22:28.336Z,58.00
2017-11-30T11:25:03.260Z,56.30
2017-11-30T11:27:38.097Z,53.10
2017-11-30T11:30:12.780Z,49.30
2017-11-30T11:32:49.697Z,49.20
2017-11-30T11:35:23.840Z,49.90
2017-11-30T11:38:01.917Z,51.50
2017-11-30T11:40:36.135Z,50.40
2017-11-30T11:43:09.479Z,49.10
2017-11-30T11:45:44.554Z,48.50
2017-11-30T11:48:18.194Z,48.10
2017-11-30T11:50:53.236Z,48.20
2017-11-30T11:53:29.073Z,49.00
2017-11-30T11:56:03.873Z,49.20
2017-11-30T11:58:47.235Z,49.10
2017-11-30T12:01:40.136Z,47.90
2017-11-30T12:04:16.173Z,44.90
2017-11-30T12:06:51.840Z,41.70
2017-11-30T12:09:26.917Z,38.40
2017-11-30T12:12:01.156Z,36.10
2017-11-30T12:14:34.918Z,35.00
2017-11-30T12:17:09.758Z,40.10
2017-11-30T12:19:53.134Z,40.10
2017-11-30T12:22:27.753Z,43.00
2017-11-30T12:25:03.135Z,44.70
2017-11-30T12:27:37.059Z,46.40
2017-11-30T12:30:11.776Z,47.00
2017-11-30T12:32:45.673Z,47.40
2017-11-30T12:35:24.416Z,48.80
2017-11-30T12:38:01.218Z,48.80
2017-11-30T12:40:36.180Z,49.10
2017-11-30T12:43:11.037Z,49.20
2017-11-30T12:45:45.399Z,49.10
2017-11-30T12:48:20.617Z,49.50
2017-11-30T12:50:55.257Z,49.70
2017-11-30T12:53:30.817Z,49.80
2017-11-30T12:56:05.331Z,50.30
2017-11-30T12:58:41.754Z,51.20
2017-11-30T13:01:16.036Z,52.20
2017-11-30T13:03:50.071Z,53.40
2017-11-30T13:06:24.332Z,54.30
2017-11-30T13:08:58.019Z,54.40
2017-11-30T13:11:32.476Z,54.50
2017-11-30T13:14:07.676Z,54.50
2017-11-30T13:16:42.297Z,54.50
2017-11-30T13:19:21.296Z,55.40
2017-11-30T13:21:57.299Z,55.30
2017-11-30T13:24:32.773Z,55.90
2017-11-30T13:27:06.396Z,56.80
2017-11-30T13:29:40.138Z,58.00
2017-11-30T13:32:13.739Z,58.40
2017-11-30T13:34:47.838Z,58.80
2017-11-30T13:37:26.396Z,59.60
2017-11-30T13:39:59.765Z,60.00
2017-11-30T13:42:33.835Z,60.00
2017-11-30T13:45:08.095Z,59.80
2017-11-30T13:47:42.279Z,59.40
2017-11-30T13:50:16.473Z,59.90
2017-11-30T13:52:50.912Z,60.00
2017-11-30T13:55:25.094Z,60.00
2017-11-30T13:57:59.732Z,60.10
2017-11-30T14:00:37.078Z,60.50
2017-11-30T14:03:12.271Z,60.90
2017-11-30T14:05:46.394Z,61.10
2017-11-30T14:08:22.292Z,61.20
2017-11-30T14:10:56.852Z,61.50
2017-11-30T14:13:30.156Z,61.50
2017-11-30T14:16:03.956Z,61.90
2017-11-30T14:18:37.896Z,62.60
2017-11-30T14:21:10.991Z,63.20
2017-11-30T14:23:45.959Z,63.80
2017-11-30T14:26:20.155Z,63.90
2017-11-30T14:28:55.553Z,64.60
2017-11-30T14:31:29.317Z,65.30
2017-11-30T14:34:03.434Z,66.00
2017-11-30T14:36:39.115Z,66.40
2017-11-30T14:39:14.255Z,67.00
2017-11-30T14:41:49.412Z,67.00
2017-11-30T14:44:24.420Z,67.60
2017-11-30T14:46:58.776Z,68.50
2017-11-30T14:49:34.111Z,68.80
2017-11-30T14:52:07.616Z,69.20
2017-11-30T14:54:41.073Z,69.50
2017-11-30T14:57:14.766Z,70.10
2017-11-30T14:59:49.775Z,70.60
2017-11-30T15:02:24.276Z,71.20
2017-11-30T15:04:57.895Z,71.10
2017-11-30T15:07:35.613Z,71.30
2017-11-30T15:10:10.615Z,71.30
2017-11-30T15:12:51.375Z,71.70
2017-11-30T15:15:27.676Z,71.60
2017-11-30T15:18:01.374Z,71.60
2017-11-30T15:20:42.212Z,71.40
2017-11-30T15:23:18.317Z,71.70
2017-11-30T15:25:51.916Z,72.10
2017-11-30T15:28:26.160Z,72.60
2017-11-30T15:30:59.340Z,72.90
2017-11-30T15:33:33.258Z,73.10
2017-11-30T15:36:06.755Z,73.00
2017-11-30T15:38:41.544Z,72.60
2017-11-30T15:41:15.573Z,72.50
2017-11-30T15:43:50.377Z,72.40
2017-11-30T15:46:30.900Z,72.70
2017-11-30T15:49:04.472Z,72.70
2017-11-30T15:51:37.798Z,73.10
2017-11-30T15:54:10.814Z,73.00
2017-11-30T15:56:44.875Z,72.90
2017-11-30T15:59:18.900Z,73.00
2017-11-30T16:01:53.256Z,73.60
2017-11-30T16:04:33.714Z,73.90
2017-11-30T16:07:07.536Z,73.80
2017-11-30T16:09:43.576Z,73.80
2017-11-30T16:12:18.422Z,73.40
2017-11-30T16:14:54.536Z,74.00
2017-11-30T16:17:28.234Z,74.00
2017-11-30T16:20:01.254Z,74.70
2017-11-30T16:22:35.714Z,75.40
